Time;durP1;ratioP1;P1;durP2;ratioP2;P2;SDS_P1;SDS_P2;PMS_P1;PMS_P2;Temp;Humidity;BMP_temperature;BMP_pressure;BME280_temperature;BME280_humidity;BME280_pressure;Samples;Min_cycle;Max_cycle;Signal;HPM_P1;HPM_P2
2022/07/19 00:01:08;;;;;;;2.23;1.40;;;;;;;15.45;98.13;101246.31;5051625;28;20214;-74
2022/07/19 00:03:35;;;;;;;2.17;1.50;;;;;;;15.45;97.92;101248.94;5042241;28;20203;-75
2022/07/19 00:06:01;;;;;;;2.20;1.60;;;;;;;15.37;96.71;101245.72;5067851;28;20666;-75
2022/07/19 00:08:29;;;;;;;1.37;1.27;;;;;;;15.38;97.85;101250.06;5047466;28;20675;-75
2022/07/19 00:10:55;;;;;;;2.30;1.50;;;;;;;15.25;97.01;101244.38;5066317;28;20195;-75
2022/07/19 00:13:22;;;;;;;2.40;1.90;;;;;;;15.26;98.11;101246.09;5052844;28;20197;-75
2022/07/19 00:15:48;;;;;;;2.90;1.60;;;;;;;15.24;98.32;101248.78;5057997;28;20244;-75
2022/07/19 00:18:15;;;;;;;1.90;1.40;;;;;;;15.21;98.49;101246.25;5059682;28;20206;-75
2022/07/19 00:20:41;;;;;;;2.47;1.70;;;;;;;15.17;97.77;101249.06;5054680;28;20206;-75
2022/07/19 00:23:08;;;;;;;2.70;1.90;;;;;;;15.15;98.22;101243.88;5036925;28;20219;-75
2022/07/19 00:25:35;;;;;;;1.87;1.57;;;;;;;15.08;98.23;101243.22;5039940;28;20206;-75
2022/07/19 00:28:02;;;;;;;2.67;1.47;;;;;;;15.10;99.37;101237.91;5075276;28;20194;-75
2022/07/19 00:30:28;;;;;;;2.70;1.90;;;;;;;15.14;99.86;101244.75;5065157;28;20248;-75
2022/07/19 00:32:55;;;;;;;2.20;1.53;;;;;;;15.06;98.46;101234.53;5067918;28;20219;-75
2022/07/19 00:35:22;;;;;;;3.73;1.80;;;;;;;15.06;99.90;101242.41;5061715;28;20672;-75
2022/07/19 00:37:50;;;;;;;1.50;1.33;;;;;;;15.05;99.45;101248.56;5064095;28;20249;-75
2022/07/19 00:40:22;;;;;;;3.07;1.57;;;;;;;15.04;100.00;101240.75;5065618;28;20582;-75
2022/07/19 00:42:50;;;;;;;1.77;1.47;;;;;;;15.03;100.00;101234.63;5055646;28;20217;-75
2022/07/19 00:45:16;;;;;;;1.93;1.47;;;;;;;14.90;100.00;101228.97;5065468;28;20200;-75
2022/07/19 00:47:43;;;;;;;2.07;1.60;;;;;;;14.86;100.00;101234.38;5074126;28;20710;-75
2022/07/19 00:50:10;;;;;;;4.77;1.70;;;;;;;14.89;100.00;101229.88;5049017;28;20195;-75
2022/07/19 00:52:39;;;;;;;1.50;1.40;;;;;;;14.82;100.00;101236.25;5061220;28;20672;-75
2022/07/19 00:55:07;;;;;;;2.53;1.57;;;;;;;14.85;100.00;101230.03;5054202;28;20648;-75
2022/07/19 00:57:37;;;;;;;2.53;1.67;;;;;;;14.83;100.00;101237.97;5066542;28;20207;-75
2022/07/19 01:00:07;;;;;;;2.20;1.40;;;;;;;14.89;100.00;101239.53;5054543;28;20211;-75
2022/07/19 01:02:34;;;;;;;1.80;1.60;;;;;;;14.87;100.00;101239.56;5035929;28;20335;-75
2022/07/19 01:05:00;;;;;;;2.30;1.60;;;;;;;14.82;100.00;101235.38;5049717;28;20199;-75
2022/07/19 01:07:27;;;;;;;2.40;1.57;;;;;;;14.72;100.00;101238.34;5043156;28;20207;-75
2022/07/19 01:09:53;;;;;;;2.00;1.60;;;;;;;14.72;100.00;101235.72;5058002;28;20385;-75
2022/07/19 01:12:20;;;;;;;2.33;1.73;;;;;;;14.68;100.00;101231.44;5064266;28;20214;-75
2022/07/19 01:14:47;;;;;;;1.40;1.30;;;;;;;14.69;100.00;101234.97;5063930;28;20197;-75
2022/07/19 01:17:15;;;;;;;2.20;1.63;;;;;;;14.62;100.00;101241.31;5072881;28;20272;-75
2022/07/19 01:19:42;;;;;;;3.63;1.60;;;;;;;14.59;100.00;101239.63;5063706;28;20202;-75
2022/07/19 01:22:11;;;;;;;1.87;1.50;;;;;;;14.65;100.00;101226.34;5073057;28;20260;-75
2022/07/19 01:24:37;;;;;;;2.50;1.43;;;;;;;14.57;100.00;101229.16;5057716;28;20203;-75
2022/07/19 01:27:05;;;;;;;3.13;1.90;;;;;;;14.57;100.00;101229.16;5052353;28;20218;-75
2022/07/19 01:29:32;;;;;;;3.60;1.87;;;;;;;14.52;100.00;101225.81;5057082;28;20195;-75
2022/07/19 01:31:58;;;;;;;2.33;1.80;;;;;;;14.52;100.00;101224.97;5072036;28;20203;-75
2022/07/19 01:34:25;;;;;;;3.10;1.73;;;;;;;14.48;100.00;101228.63;5059752;28;20207;-75
2022/07/19 01:36:51;;;;;;;2.33;1.40;;;;;;;14.46;100.00;101222.53;5053091;28;20211;-75
2022/07/19 01:39:19;;;;;;;2.53;1.67;;;;;;;14.43;100.00;101223.50;5062802;28;20202;-75
2022/07/19 01:41:45;;;;;;;2.57;1.50;;;;;;;14.42;100.00;101227.03;5055587;28;20204;-75
2022/07/19 01:44:12;;;;;;;2.20;1.60;;;;;;;14.36;100.00;101225.47;5060755;28;20198;-75
2022/07/19 01:46:38;;;;;;;3.10;1.80;;;;;;;14.35;100.00;101215.91;5056291;28;20698;-75
2022/07/19 01:49:05;;;;;;;4.87;2.00;;;;;;;14.33;100.00;101224.72;5060720;28;20206;-75
2022/07/19 01:51:32;;;;;;;3.67;1.50;;;;;;;14.32;100.00;101220.41;5072301;28;20202;-75
2022/07/19 01:53:59;;;;;;;3.83;1.90;;;;;;;14.30;100.00;101223.06;5051341;28;20205;-75
2022/07/19 01:56:27;;;;;;;3.10;1.83;;;;;;;14.27;100.00;101225.78;5072270;28;20232;-75
2022/07/19 01:58:53;;;;;;;2.77;1.90;;;;;;;14.25;100.00;101224.09;5044911;28;20203;-75
2022/07/19 02:01:20;;;;;;;2.07;1.70;;;;;;;14.20;100.00;101222.47;5053391;28;20242;-75
2022/07/19 02:03:46;;;;;;;1.80;1.40;;;;;;;14.16;100.00;101223.50;5044517;28;20206;-75
2022/07/19 02:06:13;;;;;;;1.97;1.60;;;;;;;14.17;100.00;101226.97;5061167;28;20575;-75
2022/07/19 02:08:40;;;;;;;4.20;1.80;;;;;;;14.13;100.00;101227.97;5071744;28;20201;-74
2022/07/19 02:13:49;;;;;;;2.80;1.83;;;;;;;14.09;100.00;101228.97;5071622;28;20205;-75
2022/07/19 02:16:15;;;;;;;2.63;1.60;;;;;;;14.10;100.00;101226.28;5050618;28;20225;-75
2022/07/19 02:18:42;;;;;;;4.57;1.67;;;;;;;14.09;100.00;101229.84;5054000;28;20215;-75
2022/07/19 02:21:08;;;;;;;2.53;1.80;;;;;;;14.02;100.00;101221.31;5063100;28;20236;-75
2022/07/19 02:23:35;;;;;;;2.87;1.60;;;;;;;13.99;100.00;101224.00;5062399;28;20212;-75
2022/07/19 02:26:01;;;;;;;2.73;1.80;;;;;;;14.06;100.00;101223.84;5037354;28;20219;-75
2022/07/19 02:28:28;;;;;;;2.53;1.70;;;;;;;14.03;100.00;101222.16;5049435;28;20221;-75
2022/07/19 02:30:56;;;;;;;4.27;2.00;;;;;;;14.10;100.00;101223.69;5065694;28;20202;-75
2022/07/19 02:33:22;;;;;;;1.97;1.50;;;;;;;14.04;100.00;101229.13;5053848;28;20798;-75
2022/07/19 02:35:49;;;;;;;1.73;1.47;;;;;;;14.04;100.00;101225.66;5060974;28;20309;-75
2022/07/19 02:38:16;;;;;;;2.83;1.87;;;;;;;13.93;100.00;101226.84;5031296;28;20715;-75
2022/07/19 02:40:42;;;;;;;2.50;1.70;;;;;;;13.90;100.00;101218.22;5041942;28;20201;-75
2022/07/19 02:43:09;;;;;;;3.03;1.83;;;;;;;13.90;100.00;101215.59;5071176;28;20196;-75
2022/07/19 02:45:35;;;;;;;3.30;1.70;;;;;;;13.83;100.00;101218.38;5066528;28;20216;-74
2022/07/19 02:48:04;;;;;;;2.03;1.43;;;;;;;13.90;100.00;101226.94;5054956;28;20183;-75
2022/07/19 02:50:30;;;;;;;2.37;1.70;;;;;;;13.95;100.00;101222.41;5035582;28;20198;-75
2022/07/19 02:52:57;;;;;;;3.53;1.90;;;;;;;13.81;100.00;101224.59;5022828;28;20194;-75
2022/07/19 02:55:23;;;;;;;3.43;1.90;;;;;;;13.79;100.00;101229.00;5051757;28;20189;-75
2022/07/19 02:57:50;;;;;;;3.73;1.93;;;;;;;13.78;100.00;101220.28;5049784;28;20573;-74
2022/07/19 03:00:16;;;;;;;2.63;1.60;;;;;;;13.73;100.00;101227.41;5062641;28;20308;-75
2022/07/19 03:02:43;;;;;;;3.33;1.43;;;;;;;13.68;100.00;101229.31;5064257;28;20206;-75
2022/07/19 03:05:11;;;;;;;2.73;1.83;;;;;;;13.82;100.00;101223.66;5056330;28;20204;-75
2022/07/19 03:07:38;;;;;;;2.90;1.87;;;;;;;13.74;100.00;101223.91;5056868;28;20230;-75
2022/07/19 03:10:06;;;;;;;3.53;1.67;;;;;;;13.74;100.00;101223.91;5053555;28;20195;-75
2022/07/19 03:12:32;;;;;;;1.70;1.43;;;;;;;13.85;100.00;101225.34;5070619;28;20453;-75
2022/07/19 03:14:58;;;;;;;2.70;1.57;;;;;;;13.82;100.00;101226.28;5052386;28;20213;-75
2022/07/19 03:17:25;;;;;;;4.17;1.80;;;;;;;13.80;100.00;101226.31;5040742;28;20220;-75
2022/07/19 03:19:51;;;;;;;4.17;1.70;;;;;;;13.73;100.00;101222.19;5032476;28;20786;-75
2022/07/19 03:22:19;;;;;;;3.40;1.90;;;;;;;13.80;100.00;101226.31;5043319;28;20573;-75
2022/07/19 03:24:46;;;;;;;2.20;1.60;;;;;;;13.76;100.00;101226.47;5049590;28;20201;-75
2022/07/19 03:27:12;;;;;;;2.40;1.80;;;;;;;13.75;100.00;101238.72;5067745;28;20222;-75
2022/07/19 03:29:38;;;;;;;2.83;2.00;;;;;;;13.81;100.00;101233.28;5062277;28;20194;-75
2022/07/19 03:32:05;;;;;;;2.33;1.80;;;;;;;13.72;100.00;101248.44;5052925;28;20212;-75
2022/07/19 03:34:31;;;;;;;2.40;1.67;;;;;;;13.79;100.00;101234.22;5053935;28;20202;-75
2022/07/19 03:36:58;;;;;;;3.90;1.80;;;;;;;13.82;100.00;101235.03;5051991;28;20217;-75
2022/07/19 03:39:25;;;;;;;2.70;1.80;;;;;;;13.87;100.00;101234.88;5063306;28;20247;-75
2022/07/19 03:41:52;;;;;;;2.63;1.60;;;;;;;13.85;100.00;101235.84;5052461;28;20201;-74
2022/07/19 03:44:18;;;;;;;3.17;2.07;;;;;;;13.91;100.00;101238.25;5052236;28;20700;-75
2022/07/19 03:46:44;;;;;;;2.47;1.83;;;;;;;13.95;100.00;101243.38;5069679;28;20221;-75
2022/07/19 03:49:11;;;;;;;3.30;1.77;;;;;;;13.97;100.00;101238.94;5053433;28;20202;-75
2022/07/19 03:51:37;;;;;;;2.37;1.87;;;;;;;13.99;100.00;101231.88;5038452;28;20202;-75
2022/07/19 03:54:04;;;;;;;2.60;1.70;;;;;;;14.05;100.00;101237.84;5030019;28;20201;-75
2022/07/19 03:56:31;;;;;;;2.00;1.80;;;;;;;14.07;100.00;101238.66;5028854;28;20227;-75
2022/07/19 03:58:58;;;;;;;3.83;2.00;;;;;;;14.11;100.00;101230.66;5052968;28;20457;-75
2022/07/19 04:01:24;;;;;;;2.27;1.53;;;;;;;14.10;100.00;101231.53;5034119;28;20202;-75
2022/07/19 04:03:51;;;;;;;3.83;1.90;;;;;;;14.18;100.00;101232.16;5062196;28;20411;-75
2022/07/19 04:06:17;;;;;;;2.03;1.50;;;;;;;14.31;100.00;101235.25;5069717;28;20254;-74
2022/07/19 04:08:43;;;;;;;2.70;1.80;;;;;;;14.34;100.00;101229.91;5051891;28;20199;-75
2022/07/19 04:11:10;;;;;;;5.17;1.90;;;;;;;14.50;100.00;101224.19;5061362;28;20198;-75
2022/07/19 04:13:37;;;;;;;1.93;1.60;;;;;;;14.55;100.00;101228.34;5050390;28;20196;-75
2022/07/19 04:16:05;;;;;;;2.17;1.67;;;;;;;14.70;100.00;101228.78;5029922;28;20230;-75
2022/07/19 04:18:32;;;;;;;3.03;1.60;;;;;;;14.82;100.00;101217.84;5038281;28;20231;-75
2022/07/19 04:20:58;;;;;;;2.77;1.50;;;;;;;15.00;100.00;101226.84;5062088;28;20559;-75
2022/07/19 04:23:25;;;;;;;3.13;1.87;;;;;;;15.08;100.00;101229.25;5041592;28;20199;-75
2022/07/19 04:25:51;;;;;;;2.77;1.77;;;;;;;15.18;100.00;101220.13;5048570;28;20235;-75
2022/07/19 04:28:18;;;;;;;1.90;1.50;;;;;;;15.38;100.00;101223.78;5058053;28;20191;-75
2022/07/19 04:30:46;;;;;;;3.73;1.87;;;;;;;15.52;100.00;101238.13;5032679;28;20204;-75
2022/07/19 04:33:14;;;;;;;2.77;1.60;;;;;;;15.71;100.00;101230.41;5042847;28;20251;-75
2022/07/19 04:35:40;;;;;;;3.10;1.93;;;;;;;15.87;100.00;101228.09;5061182;28;20256;-75
2022/07/19 04:38:07;;;;;;;2.90;1.80;;;;;;;15.99;100.00;101224.13;5043221;28;20226;-75
2022/07/19 04:40:33;;;;;;;2.47;1.60;;;;;;;16.05;100.00;101231.75;5034891;28;20192;-75
2022/07/19 04:43:00;;;;;;;4.13;1.90;;;;;;;16.12;100.00;101237.66;5059115;28;20415;-75
2022/07/19 04:45:27;;;;;;;1.60;1.50;;;;;;;16.16;100.00;101244.47;5056308;28;20205;-75
2022/07/19 04:47:56;;;;;;;2.20;1.60;;;;;;;16.25;100.00;101244.16;5054578;28;20200;-75
2022/07/19 04:50:22;;;;;;;3.57;1.67;;;;;;;16.36;100.00;101240.19;5046939;28;20451;-75
2022/07/19 04:52:48;;;;;;;2.27;1.80;;;;;;;16.44;100.00;101238.97;5054102;28;20206;-75
2022/07/19 04:55:15;;;;;;;1.90;1.53;;;;;;;16.57;100.00;101251.63;5031027;28;20212;-75
2022/07/19 04:57:42;;;;;;;2.97;1.93;;;;;;;16.70;99.99;101250.22;5051109;28;20218;-75
2022/07/19 05:00:11;;;;;;;3.07;1.80;;;;;;;16.84;97.87;101257.56;5051979;28;20544;-75
2022/07/19 05:02:38;;;;;;;2.17;1.50;;;;;;;16.99;96.75;101254.28;5042370;28;20203;-75
2022/07/19 05:05:06;;;;;;;2.67;1.77;;;;;;;17.13;94.31;101247.53;5048090;28;20200;-75
2022/07/19 05:07:33;;;;;;;3.33;1.77;;;;;;;17.29;93.38;101263.53;5037072;28;20220;-75
2022/07/19 05:09:59;;;;;;;3.03;1.60;;;;;;;17.41;91.11;101260.34;5052666;28;20208;-75
2022/07/19 05:12:25;;;;;;;1.63;1.20;;;;;;;17.52;87.95;101258.09;5051834;28;20198;-75
2022/07/19 05:14:52;;;;;;;2.43;1.33;;;;;;;17.67;86.60;101251.25;5024952;28;20296;-75
2022/07/19 05:17:18;;;;;;;3.80;1.50;;;;;;;17.77;83.90;101259.63;5063669;28;20676;-75
2022/07/19 05:19:45;;;;;;;2.70;1.57;;;;;;;17.88;82.87;101256.50;5042852;28;20574;-75
2022/07/19 05:22:12;;;;;;;1.33;1.23;;;;;;;18.01;81.76;101255.03;5037177;28;20539;-75
2022/07/19 05:24:39;;;;;;;1.53;1.10;;;;;;;18.14;79.29;101260.56;5033639;28;20194;-75
2022/07/19 05:27:05;;;;;;;2.07;1.37;;;;;;;18.29;79.18;101257.19;5050589;28;20252;-75
2022/07/19 05:29:32;;;;;;;2.37;1.10;;;;;;;18.42;77.79;101257.44;5070696;28;20680;-75
2022/07/19 05:31:59;;;;;;;2.00;1.20;;;;;;;18.54;78.07;101254.19;5041887;28;20542;-75
2022/07/19 05:34:25;;;;;;;2.77;1.67;;;;;;;18.68;77.45;101255.28;5057858;28;20201;-75
2022/07/19 05:36:52;;;;;;;1.90;1.20;;;;;;;18.84;75.79;101260.69;5035107;28;20207;-75
2022/07/19 05:39:19;;;;;;;2.37;1.13;;;;;;;19.01;74.22;101262.47;5034299;28;20614;-75
2022/07/19 05:41:46;;;;;;;4.17;1.20;;;;;;;19.13;73.13;101267.13;5057883;28;20385;-75
2022/07/19 05:44:13;;;;;;;1.80;1.10;;;;;;;19.27;71.95;101267.25;5046930;28;20195;-75
2022/07/19 05:46:40;;;;;;;2.10;1.40;;;;;;;19.41;71.73;101266.53;5060364;28;20230;-75
2022/07/19 05:49:07;;;;;;;1.90;1.20;;;;;;;19.56;71.67;101258.69;5062714;28;20202;-75
2022/07/19 05:51:33;;;;;;;3.00;1.30;;;;;;;19.73;69.71;101260.44;5064656;28;20575;-75
2022/07/19 05:54:00;;;;;;;1.20;1.10;;;;;;;19.84;69.42;101256.31;5062661;28;20290;-76
2022/07/19 05:56:28;;;;;;;1.90;1.30;;;;;;;19.98;68.88;101262.63;5052003;28;20231;-75
2022/07/19 05:58:55;;;;;;;1.80;1.17;;;;;;;20.10;68.31;101259.28;5061176;28;20218;-75
2022/07/19 06:01:23;;;;;;;1.07;0.90;;;;;;;20.21;67.53;101263.97;5064468;28;20199;-75
2022/07/19 06:03:52;;;;;;;1.00;0.90;;;;;;;20.32;64.60;101266.88;5053757;28;20197;-75
2022/07/19 06:06:19;;;;;;;2.27;1.10;;;;;;;20.47;65.18;101267.78;5055763;28;20225;-76
2022/07/19 06:08:46;;;;;;;1.93;1.13;;;;;;;20.65;65.77;101265.03;5062155;28;20203;-75
2022/07/19 06:11:14;;;;;;;0.93;0.90;;;;;;;20.81;64.50;101268.50;5052276;28;20221;-75
2022/07/19 06:13:42;;;;;;;2.47;1.13;;;;;;;20.93;64.22;101266.91;5063138;28;20207;-75
2022/07/19 06:16:09;;;;;;;1.30;1.10;;;;;;;21.03;61.34;101268.06;5034745;28;20223;-76
2022/07/19 06:18:36;;;;;;;1.80;1.20;;;;;;;21.17;60.45;101270.75;5028584;28;20725;-75
2022/07/19 06:21:04;;;;;;;1.00;0.90;;;;;;;21.28;59.90;101267.47;5034445;28;20248;-75
2022/07/19 06:23:30;;;;;;;1.67;1.07;;;;;;;21.40;58.79;101275.59;5037313;28;20210;-75
2022/07/19 06:25:57;;;;;;;1.43;1.10;;;;;;;21.61;57.17;101263.69;5046592;28;20223;-75
2022/07/19 06:28:24;;;;;;;1.33;1.23;;;;;;;21.77;57.56;101274.19;5049725;28;20191;-75
2022/07/19 06:30:52;;;;;;;3.40;1.00;;;;;;;21.91;56.34;101268.84;5043407;28;20230;-75
2022/07/19 06:33:18;;;;;;;1.10;0.83;;;;;;;22.04;56.83;101266.28;5065212;28;20202;-75
2022/07/19 06:35:45;;;;;;;2.50;0.97;;;;;;;22.12;56.10;101277.25;5055829;28;20203;-75
2022/07/19 06:38:11;;;;;;;2.00;1.20;;;;;;;22.29;55.88;101284.16;5065654;28;20210;-75
2022/07/19 06:40:37;;;;;;;0.93;0.83;;;;;;;22.46;55.75;101280.41;5060769;28;20191;-77
2022/07/19 06:43:04;;;;;;;1.87;1.10;;;;;;;22.60;53.64;101278.63;5057512;28;20195;-77
2022/07/19 06:45:30;;;;;;;1.30;0.90;;;;;;;22.76;54.73;101279.31;5059341;28;20195;-75
2022/07/19 06:47:58;;;;;;;1.33;1.00;;;;;;;22.84;53.70;101284.09;5063440;28;20198;-75
2022/07/19 06:50:24;;;;;;;1.87;0.90;;;;;;;23.02;53.15;101284.66;5055568;28;20195;-75
2022/07/19 06:52:51;;;;;;;1.27;0.97;;;;;;;23.17;51.37;101290.78;5063605;28;20190;-75
2022/07/19 06:55:18;;;;;;;2.10;1.33;;;;;;;23.36;52.47;101288.56;5039606;28;20199;-75
2022/07/19 06:57:44;;;;;;;1.10;1.00;;;;;;;23.50;50.58;101290.25;5050131;28;20222;-75
2022/07/19 07:00:13;;;;;;;1.10;1.00;;;;;;;23.62;50.97;101286.72;5046692;28;20199;-75
2022/07/19 07:02:40;;;;;;;1.77;1.15;;;;;;;23.76;49.83;101293.72;5057632;28;20194;-75
2022/07/19 07:05:10;;;;;;;2.00;1.40;;;;;;;23.89;49.54;101292.88;5048502;28;20218;-75
2022/07/19 07:07:37;;;;;;;2.38;1.00;;;;;;;23.99;49.06;101288.56;5040885;28;20212;-75
2022/07/19 07:10:04;;;;;;;0.82;0.80;;;;;;;24.06;48.76;101292.50;5057754;28;20207;-75
2022/07/19 07:12:31;;;;;;;1.42;0.88;;;;;;;24.16;48.85;101287.34;5046819;28;20316;-75
2022/07/19 07:14:57;;;;;;;1.10;1.00;;;;;;;24.27;48.65;101275.91;5044409;28;20211;-75
2022/07/19 07:17:24;;;;;;;2.45;1.02;;;;;;;24.43;47.42;101291.59;5042734;28;20560;-75
2022/07/19 07:19:51;;;;;;;2.25;1.10;;;;;;;24.55;47.51;101290.72;5057546;28;20222;-75
2022/07/19 07:22:18;;;;;;;1.33;1.23;;;;;;;24.69;46.54;101292.34;5060449;28;20539;-75
2022/07/19 07:24:45;;;;;;;1.35;1.00;;;;;;;24.89;46.42;101289.03;5045829;28;20210;-75
2022/07/19 07:27:11;;;;;;;2.45;1.20;;;;;;;25.04;46.81;101284.34;5063007;28;20231;-75
2022/07/19 07:29:37;;;;;;;2.20;1.33;;;;;;;25.23;45.97;101286.44;5047395;28;20199;-75
2022/07/19 07:32:05;;;;;;;1.15;1.05;;;;;;;25.34;46.35;101293.63;5029236;28;20210;-75
2022/07/19 07:34:31;;;;;;;2.17;0.95;;;;;;;25.47;47.47;101278.38;5055678;28;20562;-75
2022/07/19 07:36:57;;;;;;;1.90;1.00;;;;;;;25.58;45.13;101280.19;5028778;28;20220;-75
2022/07/19 07:39:25;;;;;;;4.07;1.20;;;;;;;25.65;45.06;101275.22;5063004;28;20217;-75
2022/07/19 07:41:51;;;;;;;1.45;1.10;;;;;;;25.77;43.38;101274.22;5055075;28;20306;-75
2022/07/19 07:44:18;;;;;;;1.23;1.13;;;;;;;25.91;43.65;101275.78;5065530;28;20195;-76
2022/07/19 07:46:44;;;;;;;1.00;0.95;;;;;;;25.98;43.23;101270.81;5054440;28;20223;-75
2022/07/19 07:49:10;;;;;;;0.95;0.90;;;;;;;26.12;43.37;101267.88;5045146;28;20227;-75
2022/07/19 07:51:37;;;;;;;1.20;1.10;;;;;;;26.21;42.42;101272.47;5059527;28;20209;-75
2022/07/19 07:54:04;;;;;;;1.50;1.20;;;;;;;26.40;41.94;101271.78;5059538;28;20203;-75
2022/07/19 07:56:31;;;;;;;1.10;1.00;;;;;;;26.54;40.99;101272.44;5039556;28;20211;-75
2022/07/19 07:58:58;;;;;;;1.33;1.23;;;;;;;26.77;41.53;101270.53;5028129;28;20226;-75
2022/07/19 08:01:24;;;;;;;2.67;1.27;;;;;;;26.83;40.15;101262.84;5064026;28;20197;-75
2022/07/19 08:03:51;;;;;;;1.27;1.17;;;;;;;26.94;40.78;101264.59;5027103;28;20294;-75
2022/07/19 08:06:17;;;;;;;1.38;1.10;;;;;;;27.00;40.64;101265.94;5061747;28;20229;-75
2022/07/19 08:08:44;;;;;;;2.22;1.17;;;;;;;27.17;40.47;101265.28;5063722;28;20195;-75
2022/07/19 08:11:11;;;;;;;0.88;0.88;;;;;;;27.32;41.40;101267.69;5063142;28;20233;-75
2022/07/19 08:13:39;;;;;;;1.33;1.10;;;;;;;27.46;40.88;101261.94;5055221;28;20195;-75
2022/07/19 08:16:06;;;;;;;1.05;0.80;;;;;;;27.62;40.04;101265.97;5059949;28;20556;-75
2022/07/19 08:18:33;;;;;;;2.38;1.15;;;;;;;27.74;37.92;101264.88;5066153;28;20217;-75
2022/07/19 08:20:59;;;;;;;1.00;0.90;;;;;;;27.81;37.89;101267.81;5039395;28;20211;-75
2022/07/19 08:23:25;;;;;;;1.33;1.05;;;;;;;27.99;37.60;101265.38;5058636;28;20195;-75
2022/07/19 08:25:52;;;;;;;1.10;1.00;;;;;;;28.08;37.16;101270.75;5058333;28;20701;-75
2022/07/19 08:28:18;;;;;;;2.05;1.17;;;;;;;28.31;37.15;101263.28;5040470;28;20205;-75
2022/07/19 08:30:46;;;;;;;1.15;1.00;;;;;;;28.30;36.72;101269.66;5053716;28;20209;-75
2022/07/19 08:33:12;;;;;;;1.10;1.00;;;;;;;28.35;38.99;101261.16;5060039;28;20202;-75
2022/07/19 08:35:39;;;;;;;1.95;1.33;;;;;;;28.49;35.90;101260.75;5047663;28;20203;-75
2022/07/19 08:38:05;;;;;;;1.33;0.82;;;;;;;28.70;35.48;101273.19;5057024;28;20199;-75
2022/07/19 08:40:34;;;;;;;1.20;1.10;;;;;;;28.85;35.38;101261.03;5040753;28;20553;-76
2022/07/19 08:43:04;;;;;;;1.38;0.90;;;;;;;29.01;35.17;101271.16;5055263;28;20207;-75
2022/07/19 08:45:31;;;;;;;0.93;0.90;;;;;;;29.05;33.77;101269.88;5047382;28;20198;-75
2022/07/19 08:47:59;;;;;;;2.00;1.20;;;;;;;29.11;34.27;101267.59;5046362;28;20202;-75
2022/07/19 08:50:26;;;;;;;1.25;1.15;;;;;;;29.22;35.89;101256.72;5046904;28;20561;-75
2022/07/19 08:52:53;;;;;;;1.65;1.40;;;;;;;29.35;35.59;101267.13;5049179;28;20198;-75
2022/07/19 08:55:20;;;;;;;1.55;0.90;;;;;;;29.35;33.22;101267.13;5051629;28;20203;-75
2022/07/19 08:57:57;;;;;;;1.13;1.02;;;;;;;29.32;33.75;101262.88;5056309;28;20210;-75
2022/07/19 09:00:24;;;;;;;1.35;1.25;;;;;;;29.41;32.18;101256.66;5033355;28;20254;-75
2022/07/19 09:02:53;;;;;;;0.90;0.90;;;;;;;29.51;32.41;101259.28;5034552;28;20211;-75
2022/07/19 09:05:22;;;;;;;1.17;0.93;;;;;;;29.67;34.36;101253.25;5046247;28;20198;-75
2022/07/19 09:08:02;;;;;;;1.85;1.05;;;;;;;29.81;32.70;101252.81;5058774;28;20224;-75
2022/07/19 09:10:29;;;;;;;1.35;1.10;;;;;;;30.02;33.82;101244.44;5064070;28;20194;-75
2022/07/19 09:13:02;;;;;;;1.10;1.00;;;;;;;30.13;33.57;101251.47;5038722;28;20207;-76
2022/07/19 09:15:44;;;;;;;1.67;1.08;;;;;;;30.20;29.46;101259.72;5049733;28;20188;-75
2022/07/19 09:18:14;;;;;;;1.15;1.05;;;;;;;30.30;30.20;101249.75;5062538;28;20253;-76
2022/07/19 09:20:43;;;;;;;2.03;1.10;;;;;;;30.39;30.00;101253.38;5048106;28;20211;-76
2022/07/19 09:23:09;;;;;;;1.10;1.00;;;;;;;30.45;31.02;101257.28;5053389;28;20206;-75
2022/07/19 09:25:38;;;;;;;1.10;1.00;;;;;;;30.41;31.84;101248.69;5058416;28;20208;-75
2022/07/19 09:28:05;;;;;;;2.28;1.20;;;;;;;30.49;30.00;101243.38;5051079;28;20203;-75
2022/07/19 09:30:37;;;;;;;1.88;1.00;;;;;;;30.74;32.00;101238.19;5045453;28;20679;-75
2022/07/19 09:33:13;;;;;;;1.95;1.15;;;;;;;30.78;31.21;101236.88;5056300;28;20195;-75
2022/07/19 09:35:44;;;;;;;1.77;1.30;;;;;;;30.79;30.44;101237.72;5051736;28;20193;-75
2022/07/19 09:38:18;;;;;;;2.72;0.93;;;;;;;30.87;31.26;101229.69;5065782;28;20198;-75
2022/07/19 09:40:44;;;;;;;1.45;1.30;;;;;;;30.98;30.44;101234.84;5037028;28;20211;-75
2022/07/19 09:43:11;;;;;;;1.00;0.90;;;;;;;31.11;29.47;101229.88;5052563;28;20374;-75
2022/07/19 09:45:37;;;;;;;1.92;1.10;;;;;;;31.19;30.90;101229.09;5036902;28;20572;-75
2022/07/19 09:48:04;;;;;;;1.33;1.13;;;;;;;31.21;29.57;101228.91;5043707;28;20196;-75
2022/07/19 09:50:31;;;;;;;3.00;1.10;;;;;;;31.27;29.82;101229.09;5033834;28;20187;-76
2022/07/19 09:53:02;;;;;;;2.28;1.20;;;;;;;31.40;27.72;101225.09;5059516;28;20197;-76
2022/07/19 09:55:30;;;;;;;2.33;1.48;;;;;;;31.48;27.48;101220.59;5056440;28;20191;-76
2022/07/19 09:57:58;;;;;;;1.55;1.35;;;;;;;31.60;29.85;101215.78;5059990;28;20223;-76
2022/07/19 10:00:25;;;;;;;1.67;1.20;;;;;;;31.68;28.14;101218.53;5049961;28;20671;-76
2022/07/19 10:02:54;;;;;;;1.90;1.20;;;;;;;31.66;27.30;101225.94;5050427;28;20349;-76
2022/07/19 10:05:21;;;;;;;3.00;1.50;;;;;;;31.70;27.63;101224.59;5059687;28;20202;-76
2022/07/19 10:07:48;;;;;;;1.40;1.27;;;;;;;31.78;27.40;101223.75;5028609;28;20215;-76
2022/07/19 10:10:19;;;;;;;2.70;1.20;;;;;;;31.86;30.22;101217.56;5062866;28;20191;-76
2022/07/19 10:12:48;;;;;;;1.15;1.02;;;;;;;31.92;28.50;101218.75;5050454;28;20199;-76
2022/07/19 10:15:16;;;;;;;1.33;1.10;;;;;;;32.18;28.19;101221.34;5060965;28;20283;-76
2022/07/19 10:17:51;;;;;;;1.35;1.10;;;;;;;32.16;26.51;101228.75;5032866;28;20207;-76
2022/07/19 10:20:21;;;;;;;1.30;1.20;;;;;;;32.18;28.06;101216.78;5039368;28;20225;-76
2022/07/19 10:22:49;;;;;;;1.50;1.30;;;;;;;32.17;28.03;101223.19;5032765;28;20351;-76
2022/07/19 10:25:18;;;;;;;1.90;1.13;;;;;;;32.23;26.52;101225.22;5056107;28;20234;-76
2022/07/19 10:27:47;;;;;;;1.13;1.02;;;;;;;32.29;26.16;101212.06;5057447;28;20234;-76
2022/07/19 10:30:23;;;;;;;2.00;1.20;;;;;;;32.19;27.24;101202.28;5058118;28;20192;-76
2022/07/19 10:32:51;;;;;;;1.38;1.10;;;;;;;32.27;27.24;101202.25;5059550;28;20214;-76
2022/07/19 10:35:20;;;;;;;1.10;1.00;;;;;;;32.25;27.90;101200.75;5051323;28;20210;-76
2022/07/19 10:37:48;;;;;;;1.30;1.20;;;;;;;32.32;26.89;101209.88;5058671;28;20314;-76
2022/07/19 10:40:15;;;;;;;1.67;1.17;;;;;;;32.29;28.38;101194.00;5035907;28;20211;-76
2022/07/19 10:43:06;;;;;;;0.82;0.80;;;;;;;32.19;26.36;101190.63;5062832;28;20660;-76
2022/07/19 10:45:33;;;;;;;2.00;1.40;;;;;;;32.32;28.43;101190.97;5046402;28;20203;-76
2022/07/19 10:48:05;;;;;;;3.10;1.00;;;;;;;32.35;27.14;101198.75;5049891;28;20558;-76
2022/07/19 10:50:52;;;;;;;1.20;1.10;;;;;;;32.47;27.75;101188.44;5063716;28;20187;-76
2022/07/19 10:53:59;;;;;;;1.45;1.10;;;;;;;32.57;28.54;101191.78;5042727;28;20206;-76
2022/07/19 10:56:29;;;;;;;1.25;1.15;;;;;;;32.69;25.57;101194.19;5049606;28;20566;-76
2022/07/19 10:58:59;;;;;;;1.85;1.17;;;;;;;32.81;26.94;101184.72;5056106;28;20191;-76
2022/07/19 11:01:28;;;;;;;1.38;1.10;;;;;;;32.78;26.16;101174.25;5042462;28;20202;-76
2022/07/19 11:03:55;;;;;;;1.20;1.00;;;;;;;32.84;25.53;101173.53;5054020;28;20199;-75
2022/07/19 11:06:24;;;;;;;1.08;1.00;;;;;;;32.96;26.23;101171.31;5046112;28;20208;-76
2022/07/19 11:08:55;;;;;;;1.92;1.20;;;;;;;33.04;26.14;101176.69;5047108;28;20211;-76
2022/07/19 11:11:23;;;;;;;0.95;0.80;;;;;;;33.06;26.69;101177.34;5043734;28;20195;-76
2022/07/19 11:13:51;;;;;;;1.75;1.00;;;;;;;33.00;25.81;101170.81;5051513;28;20273;-75
2022/07/19 11:16:19;;;;;;;1.08;0.90;;;;;;;33.15;26.47;101165.53;5046671;28;20739;-75
2022/07/19 11:18:46;;;;;;;0.85;0.80;;;;;;;33.31;25.74;101175.41;5044072;28;20206;-77
2022/07/19 11:21:15;;;;;;;1.17;1.08;;;;;;;33.26;22.98;101174.28;5052155;28;20207;-75
2022/07/19 11:23:42;;;;;;;1.42;0.85;;;;;;;33.26;24.73;101171.56;5036525;28;20306;-75
2022/07/19 11:26:11;;;;;;;1.25;1.08;;;;;;;33.40;25.79;101154.59;5045901;28;20223;-75